Capt Caden — WDC9862 — position and weather

sailwx.info

Track history (hours):
 
Tides and Currents Weather Stations Pressure Air Temp Water Temp Dewpoint Dewpoint Depression Visibility Wind Speed Wind Dir Waves Ship Positions

Capt Caden

Owner: MYKLEBUST & MYKLEBUST INC, TOMS RIVER, NJ. More information available from US FCC via Universal Licensing System and Coast Guard Vessel Documentation Center.

Last reported at 2018-May-24 14:35 UTC. Time now 2018-May-26 04:08 UTC.
Position N 39°46' W 074°04'.

Length 21 m.

Type: Fishing. MMSI: 367107650.

Date/timePositionNaut miles runAvg speedWind from/ knotsBaromVisibWave heightAir tempDewpointWater temp
2018-May-24 14:35N 39°46' W 074°04'2 7.8
2018-May-24 14:21N 39°44' W 074°04'3 7.7
2018-May-24 13:59N 39°41' W 074°05'42 7.9
2018-May-24 08:43N 38°60' W 074°13'286 7.4
2018-May-22 18:15N 34°39' W 076°40'2 7.6
2018-May-22 18:00N 34°40' W 076°40'3 5.7
2018-May-22 17:30N 34°43' W 076°42'3 5.3
2018-May-22 17:01N 34°45' W 076°40'3 5.7
2018-May-22 16:30N 34°48' W 076°41'0 0.3
2018-May-22 16:00N 34°48' W 076°41'0 0.2
2018-May-22 15:30N 34°48' W 076°41'0 0.0
2018-May-22 15:00N 34°48' W 076°41'0 0.0
2018-May-22 14:30N 34°48' W 076°41'0 0.0
2018-May-22 14:00N 34°48' W 076°41'0 0.0
2018-May-22 13:30N 34°48' W 076°41'0 0.0
2018-May-22 13:00N 34°48' W 076°41'0 0.0
2018-May-22 12:30N 34°48' W 076°41'0 0.0
2018-May-22 12:00N 34°48' W 076°41'0 0.0
2018-May-22 11:30N 34°48' W 076°41'0 0.0
2018-May-22 10:54N 34°48' W 076°41'0 0.0
2018-May-22 10:30N 34°48' W 076°41'0 0.0
2018-May-22 10:00N 34°48' W 076°41'0 0.0
2018-May-22 09:30N 34°48' W 076°41'0 0.0
2018-May-22 08:57N 34°48' W 076°41'0 0.0
2018-May-22 08:30N 34°48' W 076°41'0 0.0
2018-May-22 08:00N 34°48' W 076°41'0 0.0
2018-May-22 07:24N 34°48' W 076°41'0 0.0
2018-May-22 06:57N 34°48' W 076°41'0 0.0
2018-May-22 06:30N 34°48' W 076°41'0 0.0
2018-May-22 05:57N 34°48' W 076°41'0 0.0
2018-May-22 05:30N 34°48' W 076°41'0 0.0
2018-May-22 05:00N 34°48' W 076°41'0 0.0
2018-May-22 02:57N 34°48' W 076°41'0 0.0
2018-May-22 02:12N 34°48' W 076°41'0 0.0
2018-May-22 02:00N 34°48' W 076°41'0 0.0
2018-May-22 01:30N 34°48' W 076°41'0 0.0
2018-May-22 01:00N 34°48' W 076°41'0 0.0
2018-May-22 00:30N 34°48' W 076°41'0 0.0
2018-May-22 00:00N 34°48' W 076°41'0 0.0
2018-May-21 23:30N 34°48' W 076°41'0 0.0
2018-May-21 23:00N 34°48' W 076°41'0 0.0
2018-May-21 22:30N 34°48' W 076°41'0 0.0
2018-May-21 22:00N 34°48' W 076°41'0 0.0
2018-May-21 21:30N 34°48' W 076°41'0 0.0
2018-May-21 21:00N 34°48' W 076°41'0 0.0
2018-May-21 20:30N 34°48' W 076°41'0 0.0
2018-May-21 20:00N 34°48' W 076°41'0 0.0
2018-May-21 19:30N 34°48' W 076°41'0 0.0
2018-May-21 19:00N 34°48' W 076°41'0 0.0
2018-May-21 18:30N 34°48' W 076°41'0 0.0
2018-May-21 18:00N 34°48' W 076°41'0 0.0
2018-May-21 17:30N 34°48' W 076°41'0 0.0
2018-May-21 17:00N 34°48' W 076°41'0 0.0
2018-May-21 16:30N 34°48' W 076°41'0 0.0
2018-May-21 16:00N 34°48' W 076°41'0 0.0
2018-May-21 15:30N 34°48' W 076°41'0 0.0
2018-May-21 14:57N 34°48' W 076°41'0 0.0
2018-May-21 14:30N 34°48' W 076°41'0 0.0
2018-May-21 14:00N 34°48' W 076°41'0 0.0
2018-May-21 12:27N 34°48' W 076°41'0 0.0
2018-May-21 11:09N 34°48' W 076°41'0 0.0
2018-May-21 11:00N 34°48' W 076°41'0 0.0
2018-May-21 10:09N 34°48' W 076°41'0 0.0
2018-May-21 09:57N 34°48' W 076°41'0 0.0
2018-May-21 09:18N 34°48' W 076°41'0 0.0
2018-May-21 08:54N 34°48' W 076°41'0 0.0
2018-May-21 08:27N 34°48' W 076°41'0 0.0
2018-May-21 07:45N 34°48' W 076°41'0 0.0
2018-May-21 07:30N 34°48' W 076°41'0 0.0
2018-May-21 06:48N 34°48' W 076°41'0 0.0
2018-May-21 06:30N 34°48' W 076°41'0 0.0
2018-May-21 06:00N 34°48' W 076°41'0 0.0
2018-May-21 05:24N 34°48' W 076°41'0 0.0
2018-May-21 05:00N 34°48' W 076°41'0 0.0
2018-May-21 03:39N 34°48' W 076°41'0 0.0
2018-May-21 03:24N 34°48' W 076°41'0 0.0
2018-May-21 02:54N 34°48' W 076°41'0 0.0
2018-May-21 02:30N 34°48' W 076°41'0 0.0
2018-May-21 02:00N 34°48' W 076°41'0 0.0
2018-May-21 01:30N 34°48' W 076°41'0 0.0
2018-May-21 01:00N 34°48' W 076°41'0 0.0
2018-May-21 00:30N 34°48' W 076°41'0 0.0
2018-May-20 23:57N 34°48' W 076°41'0 0.0
2018-May-20 23:27N 34°48' W 076°41'0 0.0
2018-May-20 22:54N 34°48' W 076°41'0 0.0
2018-May-20 22:27N 34°48' W 076°41'0 0.0
2018-May-20 22:00N 34°48' W 076°41'0 0.0
2018-May-20 21:30N 34°48' W 076°41'0 0.0
2018-May-20 20:57N 34°48' W 076°41'0 0.0
2018-May-20 20:30N 34°48' W 076°41'0 0.0
2018-May-20 20:00N 34°48' W 076°41'0 0.0
2018-May-20 19:30N 34°48' W 076°41'0 0.0
2018-May-20 18:57N 34°48' W 076°41'0 0.0
2018-May-20 18:31N 34°48' W 076°41'0 0.0
2018-May-20 18:00N 34°48' W 076°41'0 0.0
2018-May-20 17:27N 34°48' W 076°41'0 0.0
2018-May-20 17:00N 34°48' W 076°41'0 0.0
2018-May-20 16:27N 34°48' W 076°41'0 0.0
2018-May-20 16:00N 34°48' W 076°41'0 0.0
2018-May-20 15:30N 34°48' W 076°41'0 0.0
2018-May-20 14:57N 34°48' W 076°41'0 0.0
2018-May-20 14:30N 34°48' W 076°41'0 0.0
2018-May-20 14:01N 34°48' W 076°41'0 0.0
2018-May-20 13:31N 34°48' W 076°41'0 0.0
2018-May-20 12:55N 34°48' W 076°41'0 0.0
2018-May-20 12:31N 34°48' W 076°41'0 0.0
2018-May-20 11:58N 34°48' W 076°41'0 0.0
2018-May-20 11:31N 34°48' W 076°41'0 0.0
2018-May-20 10:58N 34°48' W 076°41'0 0.0
2018-May-20 10:31N 34°48' W 076°41'0 0.0
2018-May-20 10:01N 34°48' W 076°41'0 0.0
2018-May-20 09:31N 34°48' W 076°41'0 0.0
2018-May-20 08:58N 34°48' W 076°41'0 0.0
2018-May-20 08:28N 34°48' W 076°41'0 0.0
2018-May-20 07:58N 34°48' W 076°41'0 0.0
2018-May-20 07:28N 34°48' W 076°41'0 0.0
2018-May-20 06:58N 34°48' W 076°41'0 0.0
2018-May-20 06:28N 34°48' W 076°41'0 0.0
2018-May-20 05:58N 34°48' W 076°41'0 0.0
2018-May-20 05:22N 34°48' W 076°41'0 0.0
2018-May-20 04:58N 34°48' W 076°41'0 0.0
2018-May-20 04:16N 34°48' W 076°41'0 0.0
2018-May-20 03:58N 34°48' W 076°41'0 0.0
2018-May-20 03:28N 34°48' W 076°41'0 0.0
2018-May-20 02:58N 34°48' W 076°41'0 0.0
2018-May-20 02:28N 34°48' W 076°41'0 0.0
2018-May-20 01:58N 34°48' W 076°41'0 0.0
2018-May-20 01:28N 34°48' W 076°41'0 0.0
2018-May-20 00:58N 34°48' W 076°41'0 0.0
2018-May-20 00:28N 34°48' W 076°41'0 0.0
2018-May-19 23:58N 34°48' W 076°41'0 0.0
2018-May-19 23:28N 34°48' W 076°41'0 0.0
2018-May-19 22:58N 34°48' W 076°41'0 0.0
2018-May-19 22:28N 34°48' W 076°41'0 0.0
2018-May-19 21:58N 34°48' W 076°41'0 0.0
2018-May-19 21:28N 34°48' W 076°41'0 0.0
2018-May-19 20:58N 34°48' W 076°41'0 0.0
2018-May-19 20:28N 34°48' W 076°41'0 0.0
2018-May-19 19:58N 34°48' W 076°41'0 0.0
2018-May-19 19:28N 34°48' W 076°41'0 0.0
2018-May-19 18:58N 34°48' W 076°41'0 0.0
2018-May-19 18:28N 34°48' W 076°41'0 0.0
2018-May-19 17:58N 34°48' W 076°41'0 0.0
2018-May-19 17:28N 34°48' W 076°41'0 0.0
2018-May-19 16:58N 34°48' W 076°41'0 0.0
2018-May-19 16:28N 34°48' W 076°41'0 0.0
2018-May-19 15:58N 34°48' W 076°41'0 0.0
2018-May-19 15:28N 34°48' W 076°41'0 0.0
2018-May-19 14:40N 34°48' W 076°41'0 0.0
2018-May-19 14:25N 34°48' W 076°41'0 0.0
2018-May-19 13:58N 34°48' W 076°41'0 0.0
2018-May-19 13:28N 34°48' W 076°41'0 0.0
2018-May-19 12:55N 34°48' W 076°41'0 0.0
2018-May-19 12:28N 34°48' W 076°41'0 0.0
2018-May-19 11:58N 34°48' W 076°41'0 0.0
2018-May-19 11:25N 34°48' W 076°41'0 0.0
2018-May-19 10:58N 34°48' W 076°41'0 0.0
2018-May-19 10:28N 34°48' W 076°41'0 0.0
2018-May-19 09:58N 34°48' W 076°41'0 0.0
2018-May-19 09:28N 34°48' W 076°41'0 0.0
2018-May-19 08:58N 34°48' W 076°41'0 0.0
2018-May-19 08:28N 34°48' W 076°41'0 0.0
2018-May-19 07:58N 34°48' W 076°41'0 0.0
2018-May-19 07:28N 34°48' W 076°41'0 0.0
2018-May-19 06:58N 34°48' W 076°41'0 0.0
2018-May-19 06:28N 34°48' W 076°41'0 0.0
2018-May-19 05:58N 34°48' W 076°41'0 0.0
2018-May-19 05:28N 34°48' W 076°41'0 0.0
2018-May-19 04:52N 34°48' W 076°41'0 0.0
2018-May-19 04:28N 34°48' W 076°41'0 0.0
2018-May-19 03:58N 34°48' W 076°41'0 0.0
2018-May-19 03:28N 34°48' W 076°41'0 0.0
2018-May-19 02:52N 34°48' W 076°41'0 0.0
2018-May-19 02:28N 34°48' W 076°41'0 0.0
2018-May-19 01:58N 34°48' W 076°41'0 0.0
2018-May-19 01:28N 34°48' W 076°41'0 0.0
2018-May-19 00:58N 34°48' W 076°41'0 0.0
2018-May-19 00:28N 34°48' W 076°41'0 0.0
2018-May-18 23:58N 34°48' W 076°41'0 0.0
2018-May-18 23:28N 34°48' W 076°41'0 0.0
2018-May-18 22:58N 34°48' W 076°41'0 0.0
2018-May-18 22:28N 34°48' W 076°41'0 0.0
2018-May-18 21:58N 34°48' W 076°41'0 0.0
2018-May-18 21:28N 34°48' W 076°41'0 0.0
2018-May-18 20:58N 34°48' W 076°41'0 0.0
2018-May-18 20:28N 34°48' W 076°41'0 0.0
2018-May-18 19:58N 34°48' W 076°41'0 0.0
2018-May-18 19:28N 34°48' W 076°41'0 0.0
2018-May-18 18:58N 34°48' W 076°41'0 0.0
2018-May-18 18:28N 34°48' W 076°41'0 0.0
2018-May-18 17:58N 34°48' W 076°41'0 0.0
2018-May-18 17:28N 34°48' W 076°41'0 0.0
2018-May-18 16:58N 34°48' W 076°41'0 0.0
2018-May-18 16:28N 34°48' W 076°41'0 0.0
2018-May-18 15:58N 34°48' W 076°41'0 0.0
2018-May-18 15:28N 34°48' W 076°41'0 0.0
2018-May-18 14:58N 34°48' W 076°41'0 0.0
2018-May-18 14:25N 34°48' W 076°41'0 0.0
2018-May-18 13:40N 34°48' W 076°41'0 0.0
2018-May-18 13:28N 34°48' W 076°41'0 0.0
2018-May-18 12:49N 34°48' W 076°41'0 0.0
2018-May-18 12:25N 34°48' W 076°41'0 0.0
2018-May-18 11:55N 34°48' W 076°41'0 0.0
2018-May-18 11:28N 34°48' W 076°41'0 0.0
2018-May-18 10:52N 34°48' W 076°41'0 0.0
2018-May-18 10:28N 34°48' W 076°41'0 0.0
2018-May-18 09:58N 34°48' W 076°41'0 0.0
2018-May-18 09:25N 34°48' W 076°41'0 0.0
2018-May-18 08:58N 34°48' W 076°41'0 0.0
2018-May-18 08:25N 34°48' W 076°41'0 0.0
2018-May-18 07:58N 34°48' W 076°41'0 0.0
2018-May-18 07:28N 34°48' W 076°41'0 0.0
2018-May-18 06:58N 34°48' W 076°41'0 0.0
2018-May-18 06:28N 34°48' W 076°41'0 0.0
2018-May-18 05:55N 34°48' W 076°41'0 0.0
2018-May-18 05:28N 34°48' W 076°41'0 0.0
2018-May-18 04:58N 34°48' W 076°41'0 0.0
2018-May-18 04:28N 34°48' W 076°41'0 0.0
2018-May-18 03:58N 34°48' W 076°41'0 0.0
2018-May-18 03:28N 34°48' W 076°41'0 0.0
2018-May-18 02:58N 34°48' W 076°41'0 0.0
2018-May-18 02:28N 34°48' W 076°41'0 0.0
2018-May-18 01:55N 34°48' W 076°41'0 0.0
2018-May-18 01:28N 34°48' W 076°41'0 0.0
2018-May-18 00:58N 34°48' W 076°41'0 0.0
2018-May-18 00:28N 34°48' W 076°41'0 0.0
2018-May-17 23:52N 34°48' W 076°41'0 0.0
2018-May-17 23:28N 34°48' W 076°41'0 0.0
2018-May-17 22:58N 34°48' W 076°41'0 0.0
2018-May-17 22:28N 34°48' W 076°41'0 0.0
2018-May-17 21:58N 34°48' W 076°41'0 0.0
2018-May-17 21:28N 34°48' W 076°41'0 0.0
2018-May-17 20:58N 34°48' W 076°41'0 0.0
2018-May-17 20:28N 34°48' W 076°41'0 0.0
2018-May-17 19:58N 34°48' W 076°41'0 0.0
2018-May-17 19:28N 34°48' W 076°41'0 0.0
2018-May-17 18:58N 34°48' W 076°41'0 0.0
2018-May-17 18:25N 34°48' W 076°41'0 0.0
2018-May-17 17:58N 34°48' W 076°41'0 0.0
2018-May-17 17:28N 34°48' W 076°41'0 0.0
2018-May-17 16:58N 34°48' W 076°41'0 0.0
2018-May-17 16:25N 34°48' W 076°41'0 0.0
2018-May-17 15:40N 34°48' W 076°41'0 0.0
2018-May-17 15:25N 34°48' W 076°41'0 0.0
2018-May-17 14:49N 34°48' W 076°41'0 0.0
2018-May-17 14:28N 34°48' W 076°41'0 0.0
2018-May-17 13:58N 34°48' W 076°41'0 0.0
2018-May-17 13:28N 34°48' W 076°41'0 0.0
2018-May-17 12:55N 34°48' W 076°41'0 0.0
2018-May-17 12:19N 34°48' W 076°41'0 0.0
2018-May-17 11:58N 34°48' W 076°41'0 0.0
2018-May-17 11:28N 34°48' W 076°41'0 0.0
2018-May-17 10:28N 34°48' W 076°41'0 0.0
2018-May-17 09:46N 34°48' W 076°41'0 0.0
2018-May-17 09:22N 34°48' W 076°41'0 0.0
2018-May-17 08:58N 34°48' W 076°41'0 0.0
2018-May-17 08:19N 34°48' W 076°41'0 0.0
2018-May-17 07:58N 34°48' W 076°41'0 0.0
2018-May-17 07:28N 34°48' W 076°41'0 0.0
2018-May-17 06:58N 34°48' W 076°41'0 0.0
2018-May-17 06:25N 34°48' W 076°41'0 0.0
2018-May-17 03:55N 34°48' W 076°41'0 0.0
2018-May-17 02:37N 34°48' W 076°41'0 0.0
2018-May-17 02:28N 34°48' W 076°41'0 0.0
2018-May-17 01:55N 34°48' W 076°41'0 0.0
2018-May-17 00:10N 34°48' W 076°41'0 0.0
2018-May-16 23:55N 34°48' W 076°41'0 0.0
2018-May-16 23:28N 34°48' W 076°41'0 0.0
2018-May-16 22:58N 34°48' W 076°41'0 0.0
2018-May-16 22:28N 34°48' W 076°41'0 0.0
2018-May-16 21:58N 34°48' W 076°41'0 0.0
2018-May-16 21:28N 34°48' W 076°41'0 0.0
2018-May-16 20:58N 34°48' W 076°41'0 0.0
2018-May-16 20:28N 34°48' W 076°41'0 0.0
2018-May-16 19:58N 34°48' W 076°41'0 0.0
2018-May-16 19:28N 34°48' W 076°41'0 0.0
2018-May-16 18:58N 34°48' W 076°41'0 0.0
2018-May-16 18:25N 34°48' W 076°41'0 0.0
2018-May-16 17:58N 34°48' W 076°41'0 0.0
2018-May-16 17:28N 34°48' W 076°41'0 0.0
2018-May-16 16:55N 34°48' W 076°41'0 0.0
2018-May-16 16:28N 34°48' W 076°41'0 0.0
2018-May-16 15:58N 34°48' W 076°41'0 0.0
2018-May-16 15:13N 34°48' W 076°41'0 0.0
2018-May-16 10:01N 34°48' W 076°41'0 0.0
2018-May-16 09:43N 34°48' W 076°41'0 0.0
2018-May-15 22:26N 34°48' W 076°41'0 0.0
2018-May-15 21:58N 34°48' W 076°41'0 0.0
2018-May-15 21:28N 34°48' W 076°41'0 0.0
2018-May-15 20:50N 34°48' W 076°41'0 0.0
2018-May-15 20:26N 34°48' W 076°41'0 0.0
2018-May-15 19:53N 34°48' W 076°41'0 0.0
2018-May-15 19:26N 34°48' W 076°41'0 0.0
2018-May-15 15:11N 34°48' W 076°41'0 0.0
2018-May-15 14:41N 34°48' W 076°41'0 0.0
2018-May-15 14:29N 34°48' W 076°41'0 0.0
2018-May-15 13:59N 34°48' W 076°41'0 0.0
2018-May-15 12:32N 34°48' W 076°41'0 0.0
2018-May-15 08:17N 34°48' W 076°41'0 0.0
2018-May-15 07:56N 34°48' W 076°41'0 0.0
2018-May-15 07:26N 34°48' W 076°41'0 0.0
2018-May-15 06:56N 34°48' W 076°41'0 0.0
2018-May-14 23:20N 34°48' W 076°41'0 0.0
2018-May-14 22:44N 34°48' W 076°41'0 0.0
2018-May-14 22:20N 34°48' W 076°41'0 0.0
2018-May-14 21:59N 34°48' W 076°41'0 0.0
2018-May-14 21:29N 34°48' W 076°41'0 0.0
2018-May-14 20:56N 34°48' W 076°41'0 0.0
2018-May-14 20:26N 34°48' W 076°41'0 0.0
2018-May-14 19:59N 34°48' W 076°41'0 0.0
2018-May-14 19:29N 34°48' W 076°41'0 0.0
2018-May-14 18:59N 34°48' W 076°41'0 0.0
2018-May-14 18:26N 34°48' W 076°41'0 0.0
2018-May-14 17:59N 34°48' W 076°41'0 0.0
2018-May-14 17:29N 34°48' W 076°41'0 0.0
2018-May-14 16:59N 34°48' W 076°41'0 0.0
2018-May-14 16:29N 34°48' W 076°41'0 0.0
2018-May-14 15:59N 34°48' W 076°41'0 0.0
2018-May-14 15:29N 34°48' W 076°41'0 0.0
2018-May-14 14:59N 34°48' W 076°41'  
Track history (hours):
 
Tides and Currents Weather Stations Pressure Air Temp Water Temp Dewpoint Dewpoint Depression Visibility Wind Speed Wind Dir Waves Ship Positions

Capt Caden

Owner: MYKLEBUST & MYKLEBUST INC, TOMS RIVER, NJ. More information available from US FCC via Universal Licensing System and Coast Guard Vessel Documentation Center.

Last reported at 2018-May-24 14:35 UTC. Time now 2018-May-26 04:08 UTC.
Position N 39°46' W 074°04'.

Length 21 m.

Type: Fishing. MMSI: 367107650.

Date/timePositionNaut miles runAvg speedWind from/ knotsBaromVisibWave heightAir tempDewpointWater temp
2018-May-24 14:35N 39°46' W 074°04'2 7.8
2018-May-24 14:21N 39°44' W 074°04'3 7.7
2018-May-24 13:59N 39°41' W 074°05'42 7.9
2018-May-24 08:43N 38°60' W 074°13'286 7.4
2018-May-22 18:15N 34°39' W 076°40'2 7.6
2018-May-22 18:00N 34°40' W 076°40'3 5.7
2018-May-22 17:30N 34°43' W 076°42'3 5.3
2018-May-22 17:01N 34°45' W 076°40'3 5.7
2018-May-22 16:30N 34°48' W 076°41'0 0.3
2018-May-22 16:00N 34°48' W 076°41'0 0.2
2018-May-22 15:30N 34°48' W 076°41'0 0.0
2018-May-22 15:00N 34°48' W 076°41'0 0.0
2018-May-22 14:30N 34°48' W 076°41'0 0.0
2018-May-22 14:00N 34°48' W 076°41'0 0.0
2018-May-22 13:30N 34°48' W 076°41'0 0.0
2018-May-22 13:00N 34°48' W 076°41'0 0.0
2018-May-22 12:30N 34°48' W 076°41'0 0.0
2018-May-22 12:00N 34°48' W 076°41'0 0.0
2018-May-22 11:30N 34°48' W 076°41'0 0.0
2018-May-22 10:54N 34°48' W 076°41'0 0.0
2018-May-22 10:30N 34°48' W 076°41'0 0.0
2018-May-22 10:00N 34°48' W 076°41'0 0.0
2018-May-22 09:30N 34°48' W 076°41'0 0.0
2018-May-22 08:57N 34°48' W 076°41'0 0.0
2018-May-22 08:30N 34°48' W 076°41'0 0.0
2018-May-22 08:00N 34°48' W 076°41'0 0.0
2018-May-22 07:24N 34°48' W 076°41'0 0.0
2018-May-22 06:57N 34°48' W 076°41'0 0.0
2018-May-22 06:30N 34°48' W 076°41'0 0.0
2018-May-22 05:57N 34°48' W 076°41'0 0.0
2018-May-22 05:30N 34°48' W 076°41'0 0.0
2018-May-22 05:00N 34°48' W 076°41'0 0.0
2018-May-22 02:57N 34°48' W 076°41'0 0.0
2018-May-22 02:12N 34°48' W 076°41'0 0.0
2018-May-22 02:00N 34°48' W 076°41'0 0.0
2018-May-22 01:30N 34°48' W 076°41'0 0.0
2018-May-22 01:00N 34°48' W 076°41'0 0.0
2018-May-22 00:30N 34°48' W 076°41'0 0.0
2018-May-22 00:00N 34°48' W 076°41'0 0.0
2018-May-21 23:30N 34°48' W 076°41'0 0.0
2018-May-21 23:00N 34°48' W 076°41'0 0.0
2018-May-21 22:30N 34°48' W 076°41'0 0.0
2018-May-21 22:00N 34°48' W 076°41'0 0.0
2018-May-21 21:30N 34°48' W 076°41'0 0.0
2018-May-21 21:00N 34°48' W 076°41'0 0.0
2018-May-21 20:30N 34°48' W 076°41'0 0.0
2018-May-21 20:00N 34°48' W 076°41'0 0.0
2018-May-21 19:30N 34°48' W 076°41'0 0.0
2018-May-21 19:00N 34°48' W 076°41'0 0.0
2018-May-21 18:30N 34°48' W 076°41'0 0.0
2018-May-21 18:00N 34°48' W 076°41'0 0.0
2018-May-21 17:30N 34°48' W 076°41'0 0.0
2018-May-21 17:00N 34°48' W 076°41'0 0.0
2018-May-21 16:30N 34°48' W 076°41'0 0.0
2018-May-21 16:00N 34°48' W 076°41'0 0.0
2018-May-21 15:30N 34°48' W 076°41'0 0.0
2018-May-21 14:57N 34°48' W 076°41'0 0.0
2018-May-21 14:30N 34°48' W 076°41'0 0.0
2018-May-21 14:00N 34°48' W 076°41'0 0.0
2018-May-21 12:27N 34°48' W 076°41'0 0.0
2018-May-21 11:09N 34°48' W 076°41'0 0.0
2018-May-21 11:00N 34°48' W 076°41'0 0.0
2018-May-21 10:09N 34°48' W 076°41'0 0.0
2018-May-21 09:57N 34°48' W 076°41'0 0.0
2018-May-21 09:18N 34°48' W 076°41'0 0.0
2018-May-21 08:54N 34°48' W 076°41'0 0.0
2018-May-21 08:27N 34°48' W 076°41'0 0.0
2018-May-21 07:45N 34°48' W 076°41'0 0.0
2018-May-21 07:30N 34°48' W 076°41'0 0.0
2018-May-21 06:48N 34°48' W 076°41'0 0.0
2018-May-21 06:30N 34°48' W 076°41'0 0.0
2018-May-21 06:00N 34°48' W 076°41'0 0.0
2018-May-21 05:24N 34°48' W 076°41'0 0.0
2018-May-21 05:00N 34°48' W 076°41'0 0.0
2018-May-21 03:39N 34°48' W 076°41'0 0.0
2018-May-21 03:24N 34°48' W 076°41'0 0.0
2018-May-21 02:54N 34°48' W 076°41'0 0.0
2018-May-21 02:30N 34°48' W 076°41'0 0.0
2018-May-21 02:00N 34°48' W 076°41'0 0.0
2018-May-21 01:30N 34°48' W 076°41'0 0.0
2018-May-21 01:00N 34°48' W 076°41'0 0.0
2018-May-21 00:30N 34°48' W 076°41'0 0.0
2018-May-20 23:57N 34°48' W 076°41'0 0.0
2018-May-20 23:27N 34°48' W 076°41'0 0.0
2018-May-20 22:54N 34°48' W 076°41'0 0.0
2018-May-20 22:27N 34°48' W 076°41'0 0.0
2018-May-20 22:00N 34°48' W 076°41'0 0.0
2018-May-20 21:30N 34°48' W 076°41'0 0.0
2018-May-20 20:57N 34°48' W 076°41'0 0.0
2018-May-20 20:30N 34°48' W 076°41'0 0.0
2018-May-20 20:00N 34°48' W 076°41'0 0.0
2018-May-20 19:30N 34°48' W 076°41'0 0.0
2018-May-20 18:57N 34°48' W 076°41'0 0.0
2018-May-20 18:31N 34°48' W 076°41'0 0.0
2018-May-20 18:00N 34°48' W 076°41'0 0.0
2018-May-20 17:27N 34°48' W 076°41'0 0.0
2018-May-20 17:00N 34°48' W 076°41'0 0.0
2018-May-20 16:27N 34°48' W 076°41'0 0.0
2018-May-20 16:00N 34°48' W 076°41'0 0.0
2018-May-20 15:30N 34°48' W 076°41'0 0.0
2018-May-20 14:57N 34°48' W 076°41'0 0.0
2018-May-20 14:30N 34°48' W 076°41'0 0.0
2018-May-20 14:01N 34°48' W 076°41'0 0.0
2018-May-20 13:31N 34°48' W 076°41'0 0.0
2018-May-20 12:55N 34°48' W 076°41'0 0.0
2018-May-20 12:31N 34°48' W 076°41'0 0.0
2018-May-20 11:58N 34°48' W 076°41'0 0.0
2018-May-20 11:31N 34°48' W 076°41'0 0.0
2018-May-20 10:58N 34°48' W 076°41'0 0.0
2018-May-20 10:31N 34°48' W 076°41'0 0.0
2018-May-20 10:01N 34°48' W 076°41'0 0.0
2018-May-20 09:31N 34°48' W 076°41'0 0.0
2018-May-20 08:58N 34°48' W 076°41'0 0.0
2018-May-20 08:28N 34°48' W 076°41'0 0.0
2018-May-20 07:58N 34°48' W 076°41'0 0.0
2018-May-20 07:28N 34°48' W 076°41'0 0.0
2018-May-20 06:58N 34°48' W 076°41'0 0.0
2018-May-20 06:28N 34°48' W 076°41'0 0.0
2018-May-20 05:58N 34°48' W 076°41'0 0.0
2018-May-20 05:22N 34°48' W 076°41'0 0.0
2018-May-20 04:58N 34°48' W 076°41'0 0.0
2018-May-20 04:16N 34°48' W 076°41'0 0.0
2018-May-20 03:58N 34°48' W 076°41'0 0.0
2018-May-20 03:28N 34°48' W 076°41'0 0.0
2018-May-20 02:58N 34°48' W 076°41'0 0.0
2018-May-20 02:28N 34°48' W 076°41'0 0.0
2018-May-20 01:58N 34°48' W 076°41'0 0.0
2018-May-20 01:28N 34°48' W 076°41'0 0.0
2018-May-20 00:58N 34°48' W 076°41'0 0.0
2018-May-20 00:28N 34°48' W 076°41'0 0.0
2018-May-19 23:58N 34°48' W 076°41'0 0.0
2018-May-19 23:28N 34°48' W 076°41'0 0.0
2018-May-19 22:58N 34°48' W 076°41'0 0.0
2018-May-19 22:28N 34°48' W 076°41'0 0.0
2018-May-19 21:58N 34°48' W 076°41'0 0.0
2018-May-19 21:28N 34°48' W 076°41'0 0.0
2018-May-19 20:58N 34°48' W 076°41'0 0.0
2018-May-19 20:28N 34°48' W 076°41'0 0.0
2018-May-19 19:58N 34°48' W 076°41'0 0.0
2018-May-19 19:28N 34°48' W 076°41'0 0.0
2018-May-19 18:58N 34°48' W 076°41'0 0.0
2018-May-19 18:28N 34°48' W 076°41'0 0.0
2018-May-19 17:58N 34°48' W 076°41'0 0.0
2018-May-19 17:28N 34°48' W 076°41'0 0.0
2018-May-19 16:58N 34°48' W 076°41'0 0.0
2018-May-19 16:28N 34°48' W 076°41'0 0.0
2018-May-19 15:58N 34°48' W 076°41'0 0.0
2018-May-19 15:28N 34°48' W 076°41'0 0.0
2018-May-19 14:40N 34°48' W 076°41'0 0.0
2018-May-19 14:25N 34°48' W 076°41'0 0.0
2018-May-19 13:58N 34°48' W 076°41'0 0.0
2018-May-19 13:28N 34°48' W 076°41'0 0.0
2018-May-19 12:55N 34°48' W 076°41'0 0.0
2018-May-19 12:28N 34°48' W 076°41'0 0.0
2018-May-19 11:58N 34°48' W 076°41'0 0.0
2018-May-19 11:25N 34°48' W 076°41'0 0.0
2018-May-19 10:58N 34°48' W 076°41'0 0.0
2018-May-19 10:28N 34°48' W 076°41'0 0.0
2018-May-19 09:58N 34°48' W 076°41'0 0.0
2018-May-19 09:28N 34°48' W 076°41'0 0.0
2018-May-19 08:58N 34°48' W 076°41'0 0.0
2018-May-19 08:28N 34°48' W 076°41'0 0.0
2018-May-19 07:58N 34°48' W 076°41'0 0.0
2018-May-19 07:28N 34°48' W 076°41'0 0.0
2018-May-19 06:58N 34°48' W 076°41'0 0.0
2018-May-19 06:28N 34°48' W 076°41'0 0.0
2018-May-19 05:58N 34°48' W 076°41'0 0.0
2018-May-19 05:28N 34°48' W 076°41'0 0.0
2018-May-19 04:52N 34°48' W 076°41'0 0.0
2018-May-19 04:28N 34°48' W 076°41'0 0.0
2018-May-19 03:58N 34°48' W 076°41'0 0.0
2018-May-19 03:28N 34°48' W 076°41'0 0.0
2018-May-19 02:52N 34°48' W 076°41'0 0.0
2018-May-19 02:28N 34°48' W 076°41'0 0.0
2018-May-19 01:58N 34°48' W 076°41'0 0.0
2018-May-19 01:28N 34°48' W 076°41'0 0.0
2018-May-19 00:58N 34°48' W 076°41'0 0.0
2018-May-19 00:28N 34°48' W 076°41'0 0.0
2018-May-18 23:58N 34°48' W 076°41'0 0.0
2018-May-18 23:28N 34°48' W 076°41'0 0.0
2018-May-18 22:58N 34°48' W 076°41'0 0.0
2018-May-18 22:28N 34°48' W 076°41'0 0.0
2018-May-18 21:58N 34°48' W 076°41'0 0.0
2018-May-18 21:28N 34°48' W 076°41'0 0.0
2018-May-18 20:58N 34°48' W 076°41'0 0.0
2018-May-18 20:28N 34°48' W 076°41'0 0.0
2018-May-18 19:58N 34°48' W 076°41'0 0.0
2018-May-18 19:28N 34°48' W 076°41'0 0.0
2018-May-18 18:58N 34°48' W 076°41'0 0.0
2018-May-18 18:28N 34°48' W 076°41'0 0.0
2018-May-18 17:58N 34°48' W 076°41'0 0.0
2018-May-18 17:28N 34°48' W 076°41'0 0.0
2018-May-18 16:58N 34°48' W 076°41'0 0.0
2018-May-18 16:28N 34°48' W 076°41'0 0.0
2018-May-18 15:58N 34°48' W 076°41'0 0.0
2018-May-18 15:28N 34°48' W 076°41'0 0.0
2018-May-18 14:58N 34°48' W 076°41'0 0.0
2018-May-18 14:25N 34°48' W 076°41'0 0.0
2018-May-18 13:40N 34°48' W 076°41'0 0.0
2018-May-18 13:28N 34°48' W 076°41'0 0.0
2018-May-18 12:49N 34°48' W 076°41'0 0.0
2018-May-18 12:25N 34°48' W 076°41'0 0.0
2018-May-18 11:55N 34°48' W 076°41'0 0.0
2018-May-18 11:28N 34°48' W 076°41'0 0.0
2018-May-18 10:52N 34°48' W 076°41'0 0.0
2018-May-18 10:28N 34°48' W 076°41'0 0.0
2018-May-18 09:58N 34°48' W 076°41'0 0.0
2018-May-18 09:25N 34°48' W 076°41'0 0.0
2018-May-18 08:58N 34°48' W 076°41'0 0.0
2018-May-18 08:25N 34°48' W 076°41'0 0.0
2018-May-18 07:58N 34°48' W 076°41'0 0.0
2018-May-18 07:28N 34°48' W 076°41'0 0.0
2018-May-18 06:58N 34°48' W 076°41'0 0.0
2018-May-18 06:28N 34°48' W 076°41'0 0.0
2018-May-18 05:55N 34°48' W 076°41'0 0.0
2018-May-18 05:28N 34°48' W 076°41'0 0.0
2018-May-18 04:58N 34°48' W 076°41'0 0.0
2018-May-18 04:28N 34°48' W 076°41'0 0.0
2018-May-18 03:58N 34°48' W 076°41'0 0.0
2018-May-18 03:28N 34°48' W 076°41'0 0.0
2018-May-18 02:58N 34°48' W 076°41'0 0.0
2018-May-18 02:28N 34°48' W 076°41'0 0.0
2018-May-18 01:55N 34°48' W 076°41'0 0.0
2018-May-18 01:28N 34°48' W 076°41'0 0.0
2018-May-18 00:58N 34°48' W 076°41'0 0.0
2018-May-18 00:28N 34°48' W 076°41'0 0.0
2018-May-17 23:52N 34°48' W 076°41'0 0.0
2018-May-17 23:28N 34°48' W 076°41'0 0.0
2018-May-17 22:58N 34°48' W 076°41'0 0.0
2018-May-17 22:28N 34°48' W 076°41'0 0.0
2018-May-17 21:58N 34°48' W 076°41'0 0.0
2018-May-17 21:28N 34°48' W 076°41'0 0.0
2018-May-17 20:58N 34°48' W 076°41'0 0.0
2018-May-17 20:28N 34°48' W 076°41'0 0.0
2018-May-17 19:58N 34°48' W 076°41'0 0.0
2018-May-17 19:28N 34°48' W 076°41'0 0.0
2018-May-17 18:58N 34°48' W 076°41'0 0.0
2018-May-17 18:25N 34°48' W 076°41'0 0.0
2018-May-17 17:58N 34°48' W 076°41'0 0.0
2018-May-17 17:28N 34°48' W 076°41'0 0.0
2018-May-17 16:58N 34°48' W 076°41'0 0.0
2018-May-17 16:25N 34°48' W 076°41'0 0.0
2018-May-17 15:40N 34°48' W 076°41'0 0.0
2018-May-17 15:25N 34°48' W 076°41'0 0.0
2018-May-17 14:49N 34°48' W 076°41'0 0.0
2018-May-17 14:28N 34°48' W 076°41'0 0.0
2018-May-17 13:58N 34°48' W 076°41'0 0.0
2018-May-17 13:28N 34°48' W 076°41'0 0.0
2018-May-17 12:55N 34°48' W 076°41'0 0.0
2018-May-17 12:19N 34°48' W 076°41'0 0.0
2018-May-17 11:58N 34°48' W 076°41'0 0.0
2018-May-17 11:28N 34°48' W 076°41'0 0.0
2018-May-17 10:28N 34°48' W 076°41'0 0.0
2018-May-17 09:46N 34°48' W 076°41'0 0.0
2018-May-17 09:22N 34°48' W 076°41'0 0.0
2018-May-17 08:58N 34°48' W 076°41'0 0.0
2018-May-17 08:19N 34°48' W 076°41'0 0.0
2018-May-17 07:58N 34°48' W 076°41'0 0.0
2018-May-17 07:28N 34°48' W 076°41'0 0.0
2018-May-17 06:58N 34°48' W 076°41'0 0.0
2018-May-17 06:25N 34°48' W 076°41'0 0.0
2018-May-17 03:55N 34°48' W 076°41'0 0.0
2018-May-17 02:37N 34°48' W 076°41'0 0.0
2018-May-17 02:28N 34°48' W 076°41'0 0.0
2018-May-17 01:55N 34°48' W 076°41'0 0.0
2018-May-17 00:10N 34°48' W 076°41'0 0.0
2018-May-16 23:55N 34°48' W 076°41'0 0.0
2018-May-16 23:28N 34°48' W 076°41'0 0.0
2018-May-16 22:58N 34°48' W 076°41'0 0.0
2018-May-16 22:28N 34°48' W 076°41'0 0.0
2018-May-16 21:58N 34°48' W 076°41'0 0.0
2018-May-16 21:28N 34°48' W 076°41'0 0.0
2018-May-16 20:58N 34°48' W 076°41'0 0.0
2018-May-16 20:28N 34°48' W 076°41'0 0.0
2018-May-16 19:58N 34°48' W 076°41'0 0.0
2018-May-16 19:28N 34°48' W 076°41'0 0.0
2018-May-16 18:58N 34°48' W 076°41'0 0.0
2018-May-16 18:25N 34°48' W 076°41'0 0.0
2018-May-16 17:58N 34°48' W 076°41'0 0.0
2018-May-16 17:28N 34°48' W 076°41'0 0.0
2018-May-16 16:55N 34°48' W 076°41'0 0.0
2018-May-16 16:28N 34°48' W 076°41'0 0.0
2018-May-16 15:58N 34°48' W 076°41'0 0.0
2018-May-16 15:13N 34°48' W 076°41'0 0.0
2018-May-16 10:01N 34°48' W 076°41'0 0.0
2018-May-16 09:43N 34°48' W 076°41'0 0.0
2018-May-15 22:26N 34°48' W 076°41'0 0.0
2018-May-15 21:58N 34°48' W 076°41'0 0.0
2018-May-15 21:28N 34°48' W 076°41'0 0.0
2018-May-15 20:50N 34°48' W 076°41'0 0.0
2018-May-15 20:26N 34°48' W 076°41'0 0.0
2018-May-15 19:53N 34°48' W 076°41'0 0.0
2018-May-15 19:26N 34°48' W 076°41'0 0.0
2018-May-15 15:11N 34°48' W 076°41'0 0.0
2018-May-15 14:41N 34°48' W 076°41'0 0.0
2018-May-15 14:29N 34°48' W 076°41'0 0.0
2018-May-15 13:59N 34°48' W 076°41'0 0.0
2018-May-15 12:32N 34°48' W 076°41'0 0.0
2018-May-15 08:17N 34°48' W 076°41'0 0.0
2018-May-15 07:56N 34°48' W 076°41'0 0.0
2018-May-15 07:26N 34°48' W 076°41'0 0.0
2018-May-15 06:56N 34°48' W 076°41'0 0.0
2018-May-14 23:20N 34°48' W 076°41'0 0.0
2018-May-14 22:44N 34°48' W 076°41'0 0.0
2018-May-14 22:20N 34°48' W 076°41'0 0.0
2018-May-14 21:59N 34°48' W 076°41'0 0.0
2018-May-14 21:29N 34°48' W 076°41'0 0.0
2018-May-14 20:56N 34°48' W 076°41'0 0.0
2018-May-14 20:26N 34°48' W 076°41'0 0.0
2018-May-14 19:59N 34°48' W 076°41'0 0.0
2018-May-14 19:29N 34°48' W 076°41'0 0.0
2018-May-14 18:59N 34°48' W 076°41'0 0.0
2018-May-14 18:26N 34°48' W 076°41'0 0.0
2018-May-14 17:59N 34°48' W 076°41'0 0.0
2018-May-14 17:29N 34°48' W 076°41'0 0.0
2018-May-14 16:59N 34°48' W 076°41'0 0.0
2018-May-14 16:29N 34°48' W 076°41'0 0.0
2018-May-14 15:59N 34°48' W 076°41'0 0.0
2018-May-14 15:29N 34°48' W 076°41'0 0.0
2018-May-14 14:59N 34°48' W 076°41'  

Dump ship's entire track history